Andiamo — WDH7723 — position and weather

sailwx.info

Track history (hours):
 
Tides and Currents Weather Stations Pressure Air Temp Water Temp Dewpoint Dewpoint Depression Visibility Wind Speed Wind Dir Waves Ship Positions

Andiamo

Owner: Westphal, Grant R, Newark, IL. More information available from US FCC via Universal Licensing System and Coast Guard Vessel Documentation Center.

Last reported at 2017-Sep-20 12:20 UTC. Time now 2017-Sep-21 23:11 UTC.
Position N 32°23' W 117°35'.

Length 19 m.

Type: Pleasure craft. MMSI: 367650990.

Date/timePositionNaut miles runAvg speedWind from/ knotsBaromVisibWave heightAir tempDewpointWater temp
2017-Sep-20 12:20N 32°23' W 117°35'2 5.2
2017-Sep-20 12:00N 32°24' W 117°35'0 0.6
2017-Sep-20 11:30N 32°24' W 117°34'2 3.1
2017-Sep-20 11:00N 32°24' W 117°32'1 1.9
2017-Sep-20 10:27N 32°25' W 117°31'1 2.0
2017-Sep-20 10:00N 32°26' W 117°31'14 7.1
2017-Sep-20 08:00N 32°33' W 117°17'4 8.8
2017-Sep-20 07:30N 32°37' W 117°15'4 8.9
2017-Sep-20 07:00N 32°41' W 117°14'  
2017-Sep-18 01:38N 32°43' W 117°14'1 3.8
2017-Sep-18 01:26N 32°42' W 117°14'1 3.4
2017-Sep-18 01:00N 32°41' W 117°15'  
2017-Sep-15 01:08N 32°46' W 117°15'0 0.0
2017-Sep-15 00:59N 32°46' W 117°15'0 0.1
2017-Sep-15 00:29N 32°46' W 117°15'6 5.3
2017-Sep-14 23:21N 32°40' W 117°16'2 6.0
2017-Sep-14 22:58N 32°39' W 117°14'4 7.3
2017-Sep-14 22:29N 32°43' W 117°14'0 0.1
2017-Sep-14 21:41N 32°43' W 117°14'0 0.0
2017-Sep-14 21:29N 32°43' W 117°14'0 0.0
2017-Sep-14 20:53N 32°43' W 117°14'0 0.0
2017-Sep-14 20:29N 32°43' W 117°14'0 0.0
2017-Sep-14 17:05N 32°43' W 117°14'0 0.0
2017-Sep-14 16:53N 32°43' W 117°14'0 0.0
2017-Sep-14 16:23N 32°43' W 117°14'0 0.0
2017-Sep-14 15:59N 32°43' W 117°14'0 0.0
2017-Sep-14 15:29N 32°43' W 117°14'0 0.0
2017-Sep-14 14:53N 32°43' W 117°14'0 0.0
2017-Sep-14 14:23N 32°43' W 117°14'0 0.0
2017-Sep-14 13:59N 32°43' W 117°14'0 0.0
2017-Sep-14 13:29N 32°43' W 117°14'0 0.0
2017-Sep-14 12:59N 32°43' W 117°14'0 0.0
2017-Sep-14 12:23N 32°43' W 117°14'0 0.0
2017-Sep-14 11:59N 32°43' W 117°14'0 0.0
2017-Sep-14 11:17N 32°43' W 117°14'0 0.0
2017-Sep-14 10:47N 32°43' W 117°14'0 0.0
2017-Sep-14 10:23N 32°43' W 117°14'0 0.0
2017-Sep-14 09:59N 32°43' W 117°14'0 0.0
2017-Sep-14 09:23N 32°43' W 117°14'0 0.0
2017-Sep-14 08:59N 32°43' W 117°14'0 0.0
2017-Sep-14 08:17N 32°43' W 117°14'0 0.0
2017-Sep-14 07:59N 32°43' W 117°14'0 0.0
2017-Sep-14 07:29N 32°43' W 117°14'0 0.0
2017-Sep-14 06:59N 32°43' W 117°14'0 0.0
2017-Sep-14 06:05N 32°43' W 117°14'0 0.0
2017-Sep-14 05:47N 32°43' W 117°14'0 0.0
2017-Sep-14 05:29N 32°43' W 117°14'0 0.0
2017-Sep-14 04:59N 32°43' W 117°14'0 0.0
2017-Sep-14 04:05N 32°43' W 117°14'0 0.1
2017-Sep-14 03:59N 32°43' W 117°14'0 0.0
2017-Sep-14 03:20N 32°43' W 117°14'0 0.0
2017-Sep-14 02:56N 32°43' W 117°14'0 0.0
2017-Sep-14 02:23N 32°43' W 117°14'0 0.0
2017-Sep-14 01:11N 32°43' W 117°14'0 0.0
2017-Sep-14 00:59N 32°43' W 117°14'0 0.0
2017-Sep-14 00:29N 32°43' W 117°14'0 0.0
2017-Sep-13 23:59N 32°43' W 117°14'0 0.0
2017-Sep-13 21:29N 32°43' W 117°14'0 0.0
2017-Sep-13 20:59N 32°43' W 117°14'0 0.0
2017-Sep-13 20:29N 32°43' W 117°14'0 0.0
2017-Sep-13 19:53N 32°43' W 117°14'0 0.0
2017-Sep-13 19:29N 32°43' W 117°14'0 0.0
2017-Sep-13 18:53N 32°43' W 117°14'0 0.0
2017-Sep-13 18:23N 32°43' W 117°14'0 0.0
2017-Sep-13 17:47N 32°43' W 117°14'0 0.0
2017-Sep-13 17:29N 32°43' W 117°14'0 0.0
2017-Sep-13 16:56N 32°43' W 117°14'0 0.0
2017-Sep-13 16:29N 32°43' W 117°14'0 0.0
2017-Sep-13 15:59N 32°43' W 117°14'0 0.0
2017-Sep-13 15:29N 32°43' W 117°14'0 0.0
2017-Sep-13 14:53N 32°43' W 117°14'0 0.0
2017-Sep-13 14:23N 32°43' W 117°14'0 0.0
2017-Sep-13 13:59N 32°43' W 117°14'0 0.0
2017-Sep-13 13:23N 32°43' W 117°14'0 0.0
2017-Sep-13 12:53N 32°43' W 117°14'0 0.0
2017-Sep-13 12:29N 32°43' W 117°14'0 0.0
2017-Sep-13 11:59N 32°43' W 117°14'0 0.0
2017-Sep-13 11:29N 32°43' W 117°14'0 0.0
2017-Sep-13 10:53N 32°43' W 117°14'0 0.0
2017-Sep-13 10:29N 32°43' W 117°14'0 0.0
2017-Sep-13 09:47N 32°43' W 117°14'0 0.0
2017-Sep-13 09:29N 32°43' W 117°14'0 0.0
2017-Sep-13 08:59N 32°43' W 117°14'0 0.0
2017-Sep-13 08:23N 32°43' W 117°14'0 0.0
2017-Sep-13 07:53N 32°43' W 117°14'0 0.0
2017-Sep-13 07:29N 32°43' W 117°14'0 0.0
2017-Sep-13 06:59N 32°43' W 117°14'0 0.0
2017-Sep-13 06:29N 32°43' W 117°14'0 0.0
2017-Sep-13 05:59N 32°43' W 117°14'0 0.0
2017-Sep-13 05:29N 32°43' W 117°14'0 0.0
2017-Sep-13 04:59N 32°43' W 117°14'0 0.0
2017-Sep-13 04:29N 32°43' W 117°14'0 0.0
2017-Sep-13 03:59N 32°43' W 117°14'0 0.0
2017-Sep-13 03:29N 32°43' W 117°14'0 0.0
2017-Sep-13 02:59N 32°43' W 117°14'0 0.0
2017-Sep-13 02:29N 32°43' W 117°14'0 0.0
2017-Sep-13 01:59N 32°43' W 117°14'0 0.0
2017-Sep-13 01:23N 32°43' W 117°14'0 0.0
2017-Sep-13 00:53N 32°43' W 117°14'0 0.0
2017-Sep-13 00:23N 32°43' W 117°14'0 0.0
2017-Sep-12 23:47N 32°43' W 117°14'0 0.0
2017-Sep-12 23:29N 32°43' W 117°14'0 0.0
2017-Sep-12 22:53N 32°43' W 117°14'0 0.0
2017-Sep-12 22:23N 32°43' W 117°14'0 0.0
2017-Sep-12 21:59N 32°43' W 117°14'0 0.0
2017-Sep-12 21:26N 32°43' W 117°14'0 0.0
2017-Sep-12 20:59N 32°43' W 117°14'0 0.0
2017-Sep-12 20:29N 32°43' W 117°14'0 0.0
2017-Sep-12 19:59N 32°43' W 117°14'0 0.0
2017-Sep-12 19:23N 32°43' W 117°14'0 0.0
2017-Sep-12 18:59N 32°43' W 117°14'0 0.0
2017-Sep-12 18:29N 32°43' W 117°14'0 0.0
2017-Sep-12 17:53N 32°43' W 117°14'0 0.0
2017-Sep-12 17:14N 32°43' W 117°14'0 0.0
2017-Sep-12 16:59N 32°43' W 117°14'0 0.0
2017-Sep-12 16:29N 32°43' W 117°14'0 0.0
2017-Sep-12 15:59N 32°43' W 117°14'0 0.0
2017-Sep-12 15:29N 32°43' W 117°14'0 0.0
2017-Sep-12 14:59N 32°43' W 117°14'0 0.0
2017-Sep-12 14:29N 32°43' W 117°14'0 0.0
2017-Sep-12 13:59N 32°43' W 117°14'0 0.0
2017-Sep-12 13:29N 32°43' W 117°14'0 0.0
2017-Sep-12 12:59N 32°43' W 117°14'0 0.0
2017-Sep-12 12:23N 32°43' W 117°14'0 0.0
2017-Sep-12 11:59N 32°43' W 117°14'0 0.0
2017-Sep-12 11:29N 32°43' W 117°14'0 0.0
2017-Sep-12 10:53N 32°43' W 117°14'0 0.0
2017-Sep-12 10:23N 32°43' W 117°14'0 0.0
2017-Sep-12 09:59N 32°43' W 117°14'0 0.0
2017-Sep-12 09:29N 32°43' W 117°14'0 0.0
2017-Sep-12 08:53N 32°43' W 117°14'0 0.0
2017-Sep-12 08:29N 32°43' W 117°14'0 0.0
2017-Sep-12 07:59N 32°43' W 117°14'0 0.0
2017-Sep-12 07:29N 32°43' W 117°14'0 0.0
2017-Sep-12 06:59N 32°43' W 117°14'0 0.0
2017-Sep-12 06:29N 32°43' W 117°14'0 0.0
2017-Sep-12 05:53N 32°43' W 117°14'0 0.0
2017-Sep-12 05:29N 32°43' W 117°14'0 0.0
2017-Sep-12 04:59N 32°43' W 117°14'0 0.0
2017-Sep-12 04:23N 32°43' W 117°14'0 0.0
2017-Sep-12 03:59N 32°43' W 117°14'0 0.0
2017-Sep-12 03:29N 32°43' W 117°14'0 0.0
2017-Sep-12 02:59N 32°43' W 117°14'0 0.0
2017-Sep-12 02:29N 32°43' W 117°14'0 0.0
2017-Sep-12 01:53N 32°43' W 117°14'0 0.0
2017-Sep-12 01:29N 32°43' W 117°14'0 0.0
2017-Sep-12 00:50N 32°43' W 117°14'0 0.0
2017-Sep-12 00:29N 32°43' W 117°14'0 0.0
2017-Sep-11 23:47N 32°43' W 117°14'0 0.0
2017-Sep-11 23:29N 32°43' W 117°14'0 0.0
2017-Sep-11 22:47N 32°43' W 117°14'0 0.0
2017-Sep-11 22:11N 32°43' W 117°14'0 0.0
2017-Sep-11 21:59N 32°43' W 117°14'0 0.0
2017-Sep-11 21:29N 32°43' W 117°14'0 0.0
2017-Sep-11 20:59N 32°43' W 117°14'0 0.0
2017-Sep-11 20:29N 32°43' W 117°14'0 0.0
2017-Sep-11 19:41N 32°43' W 117°14'0 0.0
2017-Sep-11 19:29N 32°43' W 117°14'0 0.0
2017-Sep-11 18:53N 32°43' W 117°14'0 0.0
2017-Sep-11 18:29N 32°43' W 117°14'0 0.0
2017-Sep-11 17:59N 32°43' W 117°14'0 0.0
2017-Sep-11 17:23N 32°43' W 117°14'0 0.0
2017-Sep-11 16:53N 32°43' W 117°14'0 0.0
2017-Sep-11 16:17N 32°43' W 117°14'0 0.0
2017-Sep-11 15:56N 32°43' W 117°14'0 0.0
2017-Sep-11 15:26N 32°43' W 117°14'0 0.0
2017-Sep-11 14:59N 32°43' W 117°14'0 0.0
2017-Sep-11 14:29N 32°43' W 117°14'0 0.0
2017-Sep-11 13:59N 32°43' W 117°14'0 0.0
2017-Sep-11 13:23N 32°43' W 117°14'0 0.0
2017-Sep-11 12:53N 32°43' W 117°14'0 0.0
2017-Sep-11 12:26N 32°43' W 117°14'0 0.0
2017-Sep-11 11:59N 32°43' W 117°14'0 0.0
2017-Sep-11 11:29N 32°43' W 117°14'0 0.0
2017-Sep-11 10:56N 32°43' W 117°14'0 0.0
2017-Sep-11 10:29N 32°43' W 117°14'0 0.0
2017-Sep-11 09:59N 32°43' W 117°14'0 0.0
2017-Sep-11 09:29N 32°43' W 117°14'0 0.0
2017-Sep-11 08:59N 32°43' W 117°14'0 0.0
2017-Sep-11 08:29N 32°43' W 117°14'0 0.0
2017-Sep-11 07:56N 32°43' W 117°14'0 0.0
2017-Sep-11 07:29N 32°43' W 117°14'0 0.0
2017-Sep-11 06:59N 32°43' W 117°14'0 0.0
2017-Sep-11 06:29N 32°43' W 117°14'0 0.0
2017-Sep-11 05:56N 32°43' W 117°14'0 0.0
2017-Sep-11 05:11N 32°43' W 117°14'0 0.0
2017-Sep-11 04:59N 32°43' W 117°14'0 0.0
2017-Sep-11 04:29N 32°43' W 117°14'0 0.0
2017-Sep-11 03:59N 32°43' W 117°14'0 0.0
2017-Sep-11 03:29N 32°43' W 117°14'0 0.0
2017-Sep-11 02:59N 32°43' W 117°14'0 0.0
2017-Sep-11 02:23N 32°43' W 117°14'0 0.0
2017-Sep-11 01:59N 32°43' W 117°14'0 0.0
2017-Sep-11 01:29N 32°43' W 117°14'0 0.0
2017-Sep-11 00:59N 32°43' W 117°14'0 0.0
2017-Sep-11 00:29N 32°43' W 117°14'0 0.0
2017-Sep-10 23:59N 32°43' W 117°14'0 0.0
2017-Sep-10 23:29N 32°43' W 117°14'0 0.0
2017-Sep-10 22:56N 32°43' W 117°14'0 0.0
2017-Sep-10 22:11N 32°43' W 117°14'0 0.0
2017-Sep-10 21:59N 32°43' W 117°14'0 0.0
2017-Sep-10 21:29N 32°43' W 117°14'0 0.0
2017-Sep-10 20:59N 32°43' W 117°14'0 0.0
2017-Sep-10 20:17N 32°43' W 117°14'0 0.0
2017-Sep-10 19:59N 32°43' W 117°14'0 0.0
2017-Sep-10 19:23N 32°43' W 117°14'0 0.0
2017-Sep-10 18:59N 32°43' W 117°14'0 0.0
2017-Sep-10 18:23N 32°43' W 117°14'0 0.0
2017-Sep-10 17:47N 32°43' W 117°14'0 0.0
2017-Sep-10 17:29N 32°43' W 117°14'0 0.0
2017-Sep-10 16:59N 32°43' W 117°14'0 0.0
2017-Sep-10 16:11N 32°43' W 117°14'0 0.0
2017-Sep-10 15:53N 32°43' W 117°14'0 0.0
2017-Sep-10 15:23N 32°43' W 117°14'0 0.0
2017-Sep-10 14:59N 32°43' W 117°14'0 0.0
2017-Sep-10 13:47N 32°43' W 117°14'0 0.0
2017-Sep-10 13:29N 32°43' W 117°14'0 0.0
2017-Sep-10 12:59N 32°43' W 117°14'0 0.0
2017-Sep-10 12:29N 32°43' W 117°14'  
Track history (hours):
 
Tides and Currents Weather Stations Pressure Air Temp Water Temp Dewpoint Dewpoint Depression Visibility Wind Speed Wind Dir Waves Ship Positions

Andiamo

Owner: Westphal, Grant R, Newark, IL. More information available from US FCC via Universal Licensing System and Coast Guard Vessel Documentation Center.

Last reported at 2017-Sep-20 12:20 UTC. Time now 2017-Sep-21 23:11 UTC.
Position N 32°23' W 117°35'.

Length 19 m.

Type: Pleasure craft. MMSI: 367650990.

Date/timePositionNaut miles runAvg speedWind from/ knotsBaromVisibWave heightAir tempDewpointWater temp
2017-Sep-20 12:20N 32°23' W 117°35'2 5.2
2017-Sep-20 12:00N 32°24' W 117°35'0 0.6
2017-Sep-20 11:30N 32°24' W 117°34'2 3.1
2017-Sep-20 11:00N 32°24' W 117°32'1 1.9
2017-Sep-20 10:27N 32°25' W 117°31'1 2.0
2017-Sep-20 10:00N 32°26' W 117°31'14 7.1
2017-Sep-20 08:00N 32°33' W 117°17'4 8.8
2017-Sep-20 07:30N 32°37' W 117°15'4 8.9
2017-Sep-20 07:00N 32°41' W 117°14'  
2017-Sep-18 01:38N 32°43' W 117°14'1 3.8
2017-Sep-18 01:26N 32°42' W 117°14'1 3.4
2017-Sep-18 01:00N 32°41' W 117°15'  
2017-Sep-15 01:08N 32°46' W 117°15'0 0.0
2017-Sep-15 00:59N 32°46' W 117°15'0 0.1
2017-Sep-15 00:29N 32°46' W 117°15'6 5.3
2017-Sep-14 23:21N 32°40' W 117°16'2 6.0
2017-Sep-14 22:58N 32°39' W 117°14'4 7.3
2017-Sep-14 22:29N 32°43' W 117°14'0 0.1
2017-Sep-14 21:41N 32°43' W 117°14'0 0.0
2017-Sep-14 21:29N 32°43' W 117°14'0 0.0
2017-Sep-14 20:53N 32°43' W 117°14'0 0.0
2017-Sep-14 20:29N 32°43' W 117°14'0 0.0
2017-Sep-14 17:05N 32°43' W 117°14'0 0.0
2017-Sep-14 16:53N 32°43' W 117°14'0 0.0
2017-Sep-14 16:23N 32°43' W 117°14'0 0.0
2017-Sep-14 15:59N 32°43' W 117°14'0 0.0
2017-Sep-14 15:29N 32°43' W 117°14'0 0.0
2017-Sep-14 14:53N 32°43' W 117°14'0 0.0
2017-Sep-14 14:23N 32°43' W 117°14'0 0.0
2017-Sep-14 13:59N 32°43' W 117°14'0 0.0
2017-Sep-14 13:29N 32°43' W 117°14'0 0.0
2017-Sep-14 12:59N 32°43' W 117°14'0 0.0
2017-Sep-14 12:23N 32°43' W 117°14'0 0.0
2017-Sep-14 11:59N 32°43' W 117°14'0 0.0
2017-Sep-14 11:17N 32°43' W 117°14'0 0.0
2017-Sep-14 10:47N 32°43' W 117°14'0 0.0
2017-Sep-14 10:23N 32°43' W 117°14'0 0.0
2017-Sep-14 09:59N 32°43' W 117°14'0 0.0
2017-Sep-14 09:23N 32°43' W 117°14'0 0.0
2017-Sep-14 08:59N 32°43' W 117°14'0 0.0
2017-Sep-14 08:17N 32°43' W 117°14'0 0.0
2017-Sep-14 07:59N 32°43' W 117°14'0 0.0
2017-Sep-14 07:29N 32°43' W 117°14'0 0.0
2017-Sep-14 06:59N 32°43' W 117°14'0 0.0
2017-Sep-14 06:05N 32°43' W 117°14'0 0.0
2017-Sep-14 05:47N 32°43' W 117°14'0 0.0
2017-Sep-14 05:29N 32°43' W 117°14'0 0.0
2017-Sep-14 04:59N 32°43' W 117°14'0 0.0
2017-Sep-14 04:05N 32°43' W 117°14'0 0.1
2017-Sep-14 03:59N 32°43' W 117°14'0 0.0
2017-Sep-14 03:20N 32°43' W 117°14'0 0.0
2017-Sep-14 02:56N 32°43' W 117°14'0 0.0
2017-Sep-14 02:23N 32°43' W 117°14'0 0.0
2017-Sep-14 01:11N 32°43' W 117°14'0 0.0
2017-Sep-14 00:59N 32°43' W 117°14'0 0.0
2017-Sep-14 00:29N 32°43' W 117°14'0 0.0
2017-Sep-13 23:59N 32°43' W 117°14'0 0.0
2017-Sep-13 21:29N 32°43' W 117°14'0 0.0
2017-Sep-13 20:59N 32°43' W 117°14'0 0.0
2017-Sep-13 20:29N 32°43' W 117°14'0 0.0
2017-Sep-13 19:53N 32°43' W 117°14'0 0.0
2017-Sep-13 19:29N 32°43' W 117°14'0 0.0
2017-Sep-13 18:53N 32°43' W 117°14'0 0.0
2017-Sep-13 18:23N 32°43' W 117°14'0 0.0
2017-Sep-13 17:47N 32°43' W 117°14'0 0.0
2017-Sep-13 17:29N 32°43' W 117°14'0 0.0
2017-Sep-13 16:56N 32°43' W 117°14'0 0.0
2017-Sep-13 16:29N 32°43' W 117°14'0 0.0
2017-Sep-13 15:59N 32°43' W 117°14'0 0.0
2017-Sep-13 15:29N 32°43' W 117°14'0 0.0
2017-Sep-13 14:53N 32°43' W 117°14'0 0.0
2017-Sep-13 14:23N 32°43' W 117°14'0 0.0
2017-Sep-13 13:59N 32°43' W 117°14'0 0.0
2017-Sep-13 13:23N 32°43' W 117°14'0 0.0
2017-Sep-13 12:53N 32°43' W 117°14'0 0.0
2017-Sep-13 12:29N 32°43' W 117°14'0 0.0
2017-Sep-13 11:59N 32°43' W 117°14'0 0.0
2017-Sep-13 11:29N 32°43' W 117°14'0 0.0
2017-Sep-13 10:53N 32°43' W 117°14'0 0.0
2017-Sep-13 10:29N 32°43' W 117°14'0 0.0
2017-Sep-13 09:47N 32°43' W 117°14'0 0.0
2017-Sep-13 09:29N 32°43' W 117°14'0 0.0
2017-Sep-13 08:59N 32°43' W 117°14'0 0.0
2017-Sep-13 08:23N 32°43' W 117°14'0 0.0
2017-Sep-13 07:53N 32°43' W 117°14'0 0.0
2017-Sep-13 07:29N 32°43' W 117°14'0 0.0
2017-Sep-13 06:59N 32°43' W 117°14'0 0.0
2017-Sep-13 06:29N 32°43' W 117°14'0 0.0
2017-Sep-13 05:59N 32°43' W 117°14'0 0.0
2017-Sep-13 05:29N 32°43' W 117°14'0 0.0
2017-Sep-13 04:59N 32°43' W 117°14'0 0.0
2017-Sep-13 04:29N 32°43' W 117°14'0 0.0
2017-Sep-13 03:59N 32°43' W 117°14'0 0.0
2017-Sep-13 03:29N 32°43' W 117°14'0 0.0
2017-Sep-13 02:59N 32°43' W 117°14'0 0.0
2017-Sep-13 02:29N 32°43' W 117°14'0 0.0
2017-Sep-13 01:59N 32°43' W 117°14'0 0.0
2017-Sep-13 01:23N 32°43' W 117°14'0 0.0
2017-Sep-13 00:53N 32°43' W 117°14'0 0.0
2017-Sep-13 00:23N 32°43' W 117°14'0 0.0
2017-Sep-12 23:47N 32°43' W 117°14'0 0.0
2017-Sep-12 23:29N 32°43' W 117°14'0 0.0
2017-Sep-12 22:53N 32°43' W 117°14'0 0.0
2017-Sep-12 22:23N 32°43' W 117°14'0 0.0
2017-Sep-12 21:59N 32°43' W 117°14'0 0.0
2017-Sep-12 21:26N 32°43' W 117°14'0 0.0
2017-Sep-12 20:59N 32°43' W 117°14'0 0.0
2017-Sep-12 20:29N 32°43' W 117°14'0 0.0
2017-Sep-12 19:59N 32°43' W 117°14'0 0.0
2017-Sep-12 19:23N 32°43' W 117°14'0 0.0
2017-Sep-12 18:59N 32°43' W 117°14'0 0.0
2017-Sep-12 18:29N 32°43' W 117°14'0 0.0
2017-Sep-12 17:53N 32°43' W 117°14'0 0.0
2017-Sep-12 17:14N 32°43' W 117°14'0 0.0
2017-Sep-12 16:59N 32°43' W 117°14'0 0.0
2017-Sep-12 16:29N 32°43' W 117°14'0 0.0
2017-Sep-12 15:59N 32°43' W 117°14'0 0.0
2017-Sep-12 15:29N 32°43' W 117°14'0 0.0
2017-Sep-12 14:59N 32°43' W 117°14'0 0.0
2017-Sep-12 14:29N 32°43' W 117°14'0 0.0
2017-Sep-12 13:59N 32°43' W 117°14'0 0.0
2017-Sep-12 13:29N 32°43' W 117°14'0 0.0
2017-Sep-12 12:59N 32°43' W 117°14'0 0.0
2017-Sep-12 12:23N 32°43' W 117°14'0 0.0
2017-Sep-12 11:59N 32°43' W 117°14'0 0.0
2017-Sep-12 11:29N 32°43' W 117°14'0 0.0
2017-Sep-12 10:53N 32°43' W 117°14'0 0.0
2017-Sep-12 10:23N 32°43' W 117°14'0 0.0
2017-Sep-12 09:59N 32°43' W 117°14'0 0.0
2017-Sep-12 09:29N 32°43' W 117°14'0 0.0
2017-Sep-12 08:53N 32°43' W 117°14'0 0.0
2017-Sep-12 08:29N 32°43' W 117°14'0 0.0
2017-Sep-12 07:59N 32°43' W 117°14'0 0.0
2017-Sep-12 07:29N 32°43' W 117°14'0 0.0
2017-Sep-12 06:59N 32°43' W 117°14'0 0.0
2017-Sep-12 06:29N 32°43' W 117°14'0 0.0
2017-Sep-12 05:53N 32°43' W 117°14'0 0.0
2017-Sep-12 05:29N 32°43' W 117°14'0 0.0
2017-Sep-12 04:59N 32°43' W 117°14'0 0.0
2017-Sep-12 04:23N 32°43' W 117°14'0 0.0
2017-Sep-12 03:59N 32°43' W 117°14'0 0.0
2017-Sep-12 03:29N 32°43' W 117°14'0 0.0
2017-Sep-12 02:59N 32°43' W 117°14'0 0.0
2017-Sep-12 02:29N 32°43' W 117°14'0 0.0
2017-Sep-12 01:53N 32°43' W 117°14'0 0.0
2017-Sep-12 01:29N 32°43' W 117°14'0 0.0
2017-Sep-12 00:50N 32°43' W 117°14'0 0.0
2017-Sep-12 00:29N 32°43' W 117°14'0 0.0
2017-Sep-11 23:47N 32°43' W 117°14'0 0.0
2017-Sep-11 23:29N 32°43' W 117°14'0 0.0
2017-Sep-11 22:47N 32°43' W 117°14'0 0.0
2017-Sep-11 22:11N 32°43' W 117°14'0 0.0
2017-Sep-11 21:59N 32°43' W 117°14'0 0.0
2017-Sep-11 21:29N 32°43' W 117°14'0 0.0
2017-Sep-11 20:59N 32°43' W 117°14'0 0.0
2017-Sep-11 20:29N 32°43' W 117°14'0 0.0
2017-Sep-11 19:41N 32°43' W 117°14'0 0.0
2017-Sep-11 19:29N 32°43' W 117°14'0 0.0
2017-Sep-11 18:53N 32°43' W 117°14'0 0.0
2017-Sep-11 18:29N 32°43' W 117°14'0 0.0
2017-Sep-11 17:59N 32°43' W 117°14'0 0.0
2017-Sep-11 17:23N 32°43' W 117°14'0 0.0
2017-Sep-11 16:53N 32°43' W 117°14'0 0.0
2017-Sep-11 16:17N 32°43' W 117°14'0 0.0
2017-Sep-11 15:56N 32°43' W 117°14'0 0.0
2017-Sep-11 15:26N 32°43' W 117°14'0 0.0
2017-Sep-11 14:59N 32°43' W 117°14'0 0.0
2017-Sep-11 14:29N 32°43' W 117°14'0 0.0
2017-Sep-11 13:59N 32°43' W 117°14'0 0.0
2017-Sep-11 13:23N 32°43' W 117°14'0 0.0
2017-Sep-11 12:53N 32°43' W 117°14'0 0.0
2017-Sep-11 12:26N 32°43' W 117°14'0 0.0
2017-Sep-11 11:59N 32°43' W 117°14'0 0.0
2017-Sep-11 11:29N 32°43' W 117°14'0 0.0
2017-Sep-11 10:56N 32°43' W 117°14'0 0.0
2017-Sep-11 10:29N 32°43' W 117°14'0 0.0
2017-Sep-11 09:59N 32°43' W 117°14'0 0.0
2017-Sep-11 09:29N 32°43' W 117°14'0 0.0
2017-Sep-11 08:59N 32°43' W 117°14'0 0.0
2017-Sep-11 08:29N 32°43' W 117°14'0 0.0
2017-Sep-11 07:56N 32°43' W 117°14'0 0.0
2017-Sep-11 07:29N 32°43' W 117°14'0 0.0
2017-Sep-11 06:59N 32°43' W 117°14'0 0.0
2017-Sep-11 06:29N 32°43' W 117°14'0 0.0
2017-Sep-11 05:56N 32°43' W 117°14'0 0.0
2017-Sep-11 05:11N 32°43' W 117°14'0 0.0
2017-Sep-11 04:59N 32°43' W 117°14'0 0.0
2017-Sep-11 04:29N 32°43' W 117°14'0 0.0
2017-Sep-11 03:59N 32°43' W 117°14'0 0.0
2017-Sep-11 03:29N 32°43' W 117°14'0 0.0
2017-Sep-11 02:59N 32°43' W 117°14'0 0.0
2017-Sep-11 02:23N 32°43' W 117°14'0 0.0
2017-Sep-11 01:59N 32°43' W 117°14'0 0.0
2017-Sep-11 01:29N 32°43' W 117°14'0 0.0
2017-Sep-11 00:59N 32°43' W 117°14'0 0.0
2017-Sep-11 00:29N 32°43' W 117°14'0 0.0
2017-Sep-10 23:59N 32°43' W 117°14'0 0.0
2017-Sep-10 23:29N 32°43' W 117°14'0 0.0
2017-Sep-10 22:56N 32°43' W 117°14'0 0.0
2017-Sep-10 22:11N 32°43' W 117°14'0 0.0
2017-Sep-10 21:59N 32°43' W 117°14'0 0.0
2017-Sep-10 21:29N 32°43' W 117°14'0 0.0
2017-Sep-10 20:59N 32°43' W 117°14'0 0.0
2017-Sep-10 20:17N 32°43' W 117°14'0 0.0
2017-Sep-10 19:59N 32°43' W 117°14'0 0.0
2017-Sep-10 19:23N 32°43' W 117°14'0 0.0
2017-Sep-10 18:59N 32°43' W 117°14'0 0.0
2017-Sep-10 18:23N 32°43' W 117°14'0 0.0
2017-Sep-10 17:47N 32°43' W 117°14'0 0.0
2017-Sep-10 17:29N 32°43' W 117°14'0 0.0
2017-Sep-10 16:59N 32°43' W 117°14'0 0.0
2017-Sep-10 16:11N 32°43' W 117°14'0 0.0
2017-Sep-10 15:53N 32°43' W 117°14'0 0.0
2017-Sep-10 15:23N 32°43' W 117°14'0 0.0
2017-Sep-10 14:59N 32°43' W 117°14'0 0.0
2017-Sep-10 13:47N 32°43' W 117°14'0 0.0
2017-Sep-10 13:29N 32°43' W 117°14'0 0.0
2017-Sep-10 12:59N 32°43' W 117°14'0 0.0
2017-Sep-10 12:29N 32°43' W 117°14'  

Dump ship's entire track history